createdAt,value
2019-06-01T00:03:18.931Z,1.38
2019-06-01T00:06:49.080Z,1.31
2019-06-01T00:10:19.232Z,1.09
2019-06-01T00:13:49.660Z,0.94
2019-06-01T00:17:19.848Z,1.25
2019-06-01T00:20:50.733Z,1.31
2019-06-01T00:24:20.866Z,0.82
2019-06-01T00:27:51.060Z,1.32
2019-06-01T00:31:21.144Z,1.56
2019-06-01T00:34:51.867Z,1.55
2019-06-01T00:38:21.999Z,1.15
2019-06-01T00:41:52.591Z,1.99
2019-06-01T00:45:22.643Z,1
2019-06-01T00:48:54.103Z,1.08
2019-06-01T00:52:24.423Z,1.4
2019-06-01T00:55:54.472Z,1.05
2019-06-01T00:59:24.462Z,1.05
2019-06-01T01:00:15.914Z,1.74
2019-06-01T01:03:46.124Z,1.46
2019-06-01T01:07:16.207Z,1.57
2019-06-01T01:10:46.821Z,1.51
2019-06-01T01:14:17.022Z,1.46
2019-06-01T01:17:47.855Z,1.84
2019-06-01T01:21:18.009Z,1.54
2019-06-01T01:24:48.332Z,1.94
2019-06-01T01:28:18.469Z,2.1
2019-06-01T01:31:49.170Z,1.9
2019-06-01T01:35:19.275Z,1.98
2019-06-01T01:38:50.485Z,2.27
2019-06-01T01:42:20.505Z,1.55
2019-06-01T01:45:50.805Z,1.69
2019-06-01T01:49:20.827Z,1.51
2019-06-01T01:52:51.040Z,1.79
2019-06-01T01:56:21.152Z,1.29
2019-06-01T01:59:51.323Z,1.4
2019-06-01T02:03:21.325Z,1.34
2019-06-01T02:06:51.857Z,1.46
2019-06-01T02:10:22.031Z,1.76
2019-06-01T02:13:52.107Z,2.55
2019-06-01T02:17:22.480Z,1.71
2019-06-01T02:20:52.506Z,1.64
2019-06-01T02:24:22.596Z,2.02
2019-06-01T02:27:53.108Z,1.69
2019-06-01T02:31:39.771Z,1.94
2019-06-01T02:35:11.916Z,0.97
2019-06-01T02:38:41.867Z,2.06
2019-06-01T02:42:13.582Z,1.81
2019-06-01T02:45:43.773Z,2.19
2019-06-01T02:49:13.828Z,1.95
2019-06-01T02:52:43.741Z,1.49
2019-06-01T02:56:13.800Z,2.35
2019-06-01T02:59:43.883Z,1.25
2019-06-01T03:00:33.535Z,2
2019-06-01T03:04:08.073Z,2.42
2019-06-01T03:07:40.507Z,1.64
2019-06-01T03:11:12.990Z,1.72
2019-06-01T03:14:45.575Z,2.44
2019-06-01T03:18:19.715Z,2.38
2019-06-01T03:21:51.816Z,2.06
2019-06-01T03:25:27.075Z,2.35
2019-06-01T03:29:00.643Z,2.19
2019-06-01T03:32:36.663Z,1.84
2019-06-01T03:36:07.502Z,2.88
2019-06-01T03:39:37.631Z,2.69
2019-06-01T03:43:07.820Z,2.64
2019-06-01T03:46:37.861Z,2.42
2019-06-01T03:50:09.119Z,2.86
2019-06-01T03:53:39.362Z,2.75
2019-06-01T03:57:09.548Z,3.94
2019-06-01T04:00:39.658Z,3.34
2019-06-01T04:04:09.705Z,2.99
2019-06-01T04:07:39.907Z,4.71
2019-06-01T04:11:09.931Z,3.72
2019-06-01T04:14:39.973Z,3.61
2019-06-01T04:18:10.306Z,4.44
2019-06-01T04:21:40.377Z,2.84
2019-06-01T04:25:10.556Z,3.96
2019-06-01T04:28:40.684Z,3.17
2019-06-01T04:32:10.780Z,3.91
2019-06-01T04:35:40.783Z,4.3
2019-06-01T04:39:11.696Z,4.38
2019-06-01T04:42:41.947Z,4.74
2019-06-01T04:46:12.411Z,3.5
2019-06-01T04:49:42.520Z,4.35
2019-06-01T04:53:13.428Z,3.27
2019-06-01T04:56:43.564Z,3.56
2019-06-01T05:03:51.054Z,4.26
2019-06-01T05:07:21.049Z,3.31
2019-06-01T05:10:51.110Z,5.26
2019-06-01T05:14:21.254Z,3.01
2019-06-01T05:17:51.256Z,3.25
2019-06-01T05:21:21.417Z,4.67
2019-06-01T05:24:51.422Z,4.28
2019-06-01T05:28:21.496Z,4.05
2019-06-01T05:31:51.370Z,5.4
2019-06-01T05:35:21.387Z,3.47
2019-06-01T05:38:51.354Z,4.34
2019-06-01T05:42:21.406Z,2.94
2019-06-01T05:45:51.556Z,4.65
2019-06-01T05:49:22.764Z,5.17
2019-06-01T05:52:52.794Z,3.97
2019-06-01T05:56:23.034Z,2.4
2019-06-01T05:59:53.101Z,2.99
2019-06-01T06:03:39.284Z,6.03
2019-06-01T06:07:10.654Z,5.81
2019-06-01T06:10:40.884Z,6.41
2019-06-01T06:14:11.473Z,2.26
2019-06-01T06:17:41.565Z,5.9
2019-06-01T06:21:11.970Z,2.59
2019-06-01T06:24:42.215Z,4.45
2019-06-01T06:28:12.571Z,5.01
2019-06-01T06:31:42.683Z,5.3
2019-06-01T06:35:13.286Z,3.27
2019-06-01T06:38:43.315Z,4.69
2019-06-01T06:42:14.051Z,5.84
2019-06-01T06:45:44.190Z,3.85
2019-06-01T06:49:15.030Z,6.06
2019-06-01T06:52:45.728Z,6.9
2019-06-01T06:56:15.754Z,2.84
2019-06-01T06:59:45.805Z,6.54
2019-06-01T07:00:16.286Z,6.85
2019-06-01T07:03:46.509Z,5.69
2019-06-01T07:07:17.616Z,5.01
2019-06-01T07:10:47.923Z,5.22
2019-06-01T07:14:19.192Z,4.69
2019-06-01T07:17:49.348Z,6.56
2019-06-01T07:21:19.603Z,5.69
2019-06-01T07:24:49.744Z,6.96
2019-06-01T07:28:19.980Z,6.32
2019-06-01T07:31:50.017Z,8.11
2019-06-01T07:35:20.529Z,7.61
2019-06-01T07:38:50.751Z,6.65
2019-06-01T07:42:24.478Z,6.81
2019-06-01T07:45:55.188Z,8.51
2019-06-01T07:49:25.235Z,7.61
2019-06-01T07:52:55.318Z,7.6
2019-06-01T07:56:26.543Z,8.8
2019-06-01T07:59:56.773Z,6.89
2019-06-01T08:03:30.685Z,7.71
2019-06-01T08:07:03.088Z,7.69
2019-06-01T08:10:33.582Z,6.45
2019-06-01T08:14:03.726Z,5.81
2019-06-01T08:17:33.936Z,5.46
2019-06-01T08:21:04.008Z,6.52
2019-06-01T08:24:34.095Z,7.66
2019-06-01T08:28:04.215Z,8.94
2019-06-01T08:31:34.290Z,7.19
2019-06-01T08:35:09.353Z,6.24
2019-06-01T08:38:39.844Z,6.08
2019-06-01T08:42:09.910Z,7.68
2019-06-01T08:45:39.975Z,8.04
2019-06-01T08:49:10.119Z,6.84
2019-06-01T08:52:40.269Z,7.66
2019-06-01T08:56:10.372Z,7.16
2019-06-01T08:59:40.442Z,8.4
2019-06-01T09:00:15.072Z,8.99
2019-06-01T09:03:46.791Z,6.9
2019-06-01T09:07:17.124Z,7.65
2019-06-01T09:10:47.141Z,7.24
2019-06-01T09:14:17.286Z,7.16
2019-06-01T09:17:47.317Z,6.17
2019-06-01T09:21:17.320Z,6.81
2019-06-01T09:24:47.327Z,6.33
2019-06-01T09:28:17.340Z,5.7
2019-06-01T09:31:47.493Z,5.84
2019-06-01T09:35:17.558Z,5.05
2019-06-01T09:38:47.619Z,6.89
2019-06-01T09:42:17.755Z,4.83
2019-06-01T09:45:52.798Z,5.58
2019-06-01T09:49:23.348Z,5.21
2019-06-01T09:52:53.378Z,5.44
2019-06-01T09:56:23.545Z,5.42
2019-06-01T09:59:53.597Z,5.82
2019-06-01T10:03:23.689Z,5.35
2019-06-01T10:06:53.844Z,5.14
2019-06-01T10:10:23.955Z,6.05
2019-06-01T10:13:53.981Z,5.91
2019-06-01T10:17:24.078Z,5.46
2019-06-01T10:20:54.073Z,4.69
2019-06-01T10:24:24.115Z,6.51
2019-06-01T10:27:54.122Z,6.88
2019-06-01T10:31:24.140Z,5.85
2019-06-01T10:34:54.195Z,6.11
2019-06-01T10:38:24.219Z,5.62
2019-06-01T10:41:54.278Z,6.26
2019-06-01T10:45:24.401Z,4.71
2019-06-01T10:48:54.550Z,5.66
2019-06-01T10:52:24.677Z,5.49
2019-06-01T10:55:54.870Z,5.45
2019-06-01T10:59:24.978Z,5.42
2019-06-01T11:00:15.329Z,5.95
2019-06-01T11:03:45.399Z,5.76
2019-06-01T11:07:15.402Z,6.41
2019-06-01T11:10:45.540Z,6.57
2019-06-01T11:14:15.731Z,6.46
2019-06-01T11:17:45.821Z,5.9
2019-06-01T11:21:15.924Z,5.5
2019-06-01T11:24:46.005Z,6.58
2019-06-01T11:28:16.108Z,6.09
2019-06-01T11:31:46.246Z,5.61
2019-06-01T11:35:16.623Z,5.56
2019-06-01T11:38:46.726Z,6.08
2019-06-01T11:42:19.764Z,6.69
2019-06-01T11:45:50.272Z,6.2
2019-06-01T11:49:21.060Z,6.34
2019-06-01T11:52:51.597Z,5.97
2019-06-01T11:56:21.683Z,6.39
2019-06-01T11:59:51.788Z,5.6
2019-06-01T12:03:21.906Z,5.68
2019-06-01T12:06:52.091Z,6.33
2019-06-01T12:10:22.094Z,5.16
2019-06-01T12:13:52.160Z,7.22
2019-06-01T12:17:22.270Z,6.06
2019-06-01T12:20:52.506Z,7.01
2019-06-01T12:24:25.606Z,7.11
2019-06-01T12:27:55.999Z,7.05
2019-06-01T12:31:26.156Z,7.74
2019-06-01T12:34:56.269Z,6.45
2019-06-01T12:38:26.385Z,6.74
2019-06-01T12:41:56.445Z,6.75
2019-06-01T12:45:26.549Z,7.5
2019-06-01T12:48:56.625Z,6.84
2019-06-01T12:52:26.744Z,8.14
2019-06-01T12:55:56.827Z,7.54
2019-06-01T12:59:26.882Z,8.34
2019-06-01T13:00:15.437Z,8.38
2019-06-01T13:03:45.520Z,7.93
2019-06-01T13:07:15.578Z,8.25
2019-06-01T13:10:45.646Z,7.56
2019-06-01T13:14:15.806Z,6.82
2019-06-01T13:17:45.876Z,6.47
2019-06-01T13:21:15.983Z,7.16
2019-06-01T13:24:46.088Z,7.85
2019-06-01T13:28:16.155Z,7.05
2019-06-01T13:31:46.300Z,8.65
2019-06-01T13:35:16.432Z,7.24
2019-06-01T13:38:46.683Z,8.07
2019-06-01T13:42:16.888Z,7.15
2019-06-01T13:45:47.326Z,7.25
2019-06-01T13:49:17.658Z,6.88
2019-06-01T13:52:48.032Z,8.04
2019-06-01T13:56:18.290Z,8.05
2019-06-01T13:59:48.798Z,8.2
2019-06-01T14:03:19.052Z,6.64
2019-06-01T14:06:49.190Z,7.66
2019-06-01T14:10:19.416Z,7.9
2019-06-01T14:13:49.915Z,7.5
2019-06-01T14:17:20.041Z,7.7
2019-06-01T14:20:50.196Z,7.16
2019-06-01T14:24:20.367Z,7.05
2019-06-01T14:27:50.488Z,7.21
2019-06-01T14:31:20.708Z,8.25
2019-06-01T14:34:51.553Z,6.99
2019-06-01T14:38:22.258Z,6.79
2019-06-01T14:41:53.498Z,7.75
2019-06-01T14:45:24.002Z,6.51
2019-06-01T14:48:54.072Z,6.44
2019-06-01T14:52:24.152Z,6.76
2019-06-01T14:55:54.406Z,6.89
2019-06-01T14:59:24.611Z,6.88
2019-06-01T15:00:15.724Z,7.39
2019-06-01T15:03:45.923Z,6.89
2019-06-01T15:07:16.083Z,6.92
2019-06-01T15:10:46.137Z,7.41
2019-06-01T15:14:16.372Z,6.35
2019-06-01T15:17:46.556Z,6.71
2019-06-01T15:21:16.712Z,7.4
2019-06-01T15:24:46.811Z,7.21
2019-06-01T15:28:16.896Z,7.69
2019-06-01T15:31:47.107Z,6.95
2019-06-01T15:35:18.527Z,7.56
2019-06-01T15:38:48.703Z,6.39
2019-06-01T15:42:18.848Z,8.25
2019-06-01T15:45:49.017Z,7.55
2019-06-01T15:49:19.240Z,6.45
2019-06-01T15:52:49.376Z,7.89
2019-06-01T15:56:23.012Z,7.48
2019-06-01T15:59:54.535Z,6.12
2019-06-01T16:03:24.869Z,7.58
2019-06-01T16:06:55.075Z,7.72
2019-06-01T16:10:25.250Z,7.12
2019-06-01T16:13:55.713Z,8.56
2019-06-01T16:17:25.831Z,7.83
2019-06-01T16:20:56.041Z,8.31
2019-06-01T16:24:26.195Z,7.69
2019-06-01T16:27:56.633Z,7.66
2019-06-01T16:31:26.839Z,7.34
2019-06-01T16:34:56.965Z,7.81
2019-06-01T16:38:27.070Z,8.59
2019-06-01T16:41:57.705Z,8.2
2019-06-01T16:45:27.805Z,7.53
2019-06-01T16:48:57.848Z,8.21
2019-06-01T16:52:27.929Z,7.47
2019-06-01T16:55:58.044Z,8.3
2019-06-01T16:59:28.338Z,8.91
2019-06-01T17:00:15.436Z,11.22
2019-06-01T17:03:45.637Z,8.9
2019-06-01T17:07:15.699Z,8.62
2019-06-01T17:10:46.249Z,8.5
2019-06-01T17:14:16.316Z,8.39
2019-06-01T17:17:46.356Z,7.1
2019-06-01T17:21:16.339Z,9.57
2019-06-01T17:24:46.445Z,9.76
2019-06-01T17:28:16.491Z,8.04
2019-06-01T17:31:54.395Z,8.66
2019-06-01T17:35:24.905Z,10.1
2019-06-01T17:38:55.036Z,8.79
2019-06-01T17:42:25.118Z,7.88
2019-06-01T17:45:55.109Z,8.34
2019-06-01T17:49:25.156Z,9.79
2019-06-01T17:52:55.172Z,8.73
2019-06-01T17:56:25.318Z,8.96
2019-06-01T17:59:55.378Z,10.68
2019-06-01T18:03:25.500Z,9.34
2019-06-01T18:06:55.623Z,8.7
2019-06-01T18:10:25.797Z,9.15
2019-06-01T18:13:55.929Z,9.43
2019-06-01T18:17:25.916Z,8.36
2019-06-01T18:20:55.938Z,8.96
2019-06-01T18:24:26.063Z,9.32
2019-06-01T18:27:56.285Z,9.39
2019-06-01T18:31:26.357Z,9.71
2019-06-01T18:34:56.417Z,9.41
2019-06-01T18:38:26.575Z,10.25
2019-06-01T18:41:56.694Z,10.14
2019-06-01T18:45:26.990Z,9.2
2019-06-01T18:48:57.076Z,9.89
2019-06-01T18:52:27.079Z,11.74
2019-06-01T18:55:57.219Z,9.91
2019-06-01T18:59:27.242Z,8.81
2019-06-01T19:00:15.787Z,15.29
2019-06-01T19:03:46.000Z,9.48
2019-06-01T19:07:16.143Z,10.36
2019-06-01T19:10:46.909Z,10.07
2019-06-01T19:14:17.878Z,9.59
2019-06-01T19:17:47.855Z,11.2
2019-06-01T19:21:17.967Z,10.3
2019-06-01T19:24:47.937Z,9.52
2019-06-01T19:28:18.075Z,8.7
2019-06-01T19:31:48.346Z,10.9
2019-06-01T19:35:18.385Z,10.5
2019-06-01T19:38:49.571Z,11.07
2019-06-01T19:42:19.679Z,10.94
2019-06-01T19:45:49.719Z,9.66
2019-06-01T19:49:19.904Z,10.04
2019-06-01T19:52:49.963Z,9.81
2019-06-01T19:56:20.528Z,10.19
2019-06-01T19:59:51.883Z,10.09
2019-06-01T20:03:22.655Z,9.64
2019-06-01T20:06:53.988Z,10.84
2019-06-01T20:10:24.088Z,11.9
2019-06-01T20:13:54.164Z,9.38
2019-06-01T20:17:26.349Z,12.04
2019-06-01T20:20:56.795Z,11.21
2019-06-01T20:24:26.890Z,11.2
2019-06-01T20:27:56.985Z,10.29
2019-06-01T20:31:27.025Z,10.9
2019-06-01T20:34:56.971Z,10.99
2019-06-01T20:38:27.047Z,11.84
2019-06-01T20:41:57.090Z,11.76
2019-06-01T20:45:27.160Z,10.61
2019-06-01T20:48:57.313Z,11.14
2019-06-01T20:52:27.449Z,11
2019-06-01T20:55:57.406Z,10.66
2019-06-01T20:59:27.512Z,11.55
2019-06-01T21:00:16.018Z,11.2
2019-06-01T21:03:46.222Z,11.12
2019-06-01T21:07:16.380Z,9.96
2019-06-01T21:10:46.480Z,9.22
2019-06-01T21:14:16.519Z,9.86
2019-06-01T21:17:49.777Z,10.2
2019-06-01T21:21:20.462Z,11.31
2019-06-01T21:24:50.602Z,9.99
2019-06-01T21:28:22.091Z,10.91
2019-06-01T21:31:53.532Z,11.55
2019-06-01T21:35:23.616Z,10.12
2019-06-01T21:38:53.823Z,7.94
2019-06-01T21:42:23.809Z,8.49
2019-06-01T21:45:53.971Z,8.1
2019-06-01T21:49:24.197Z,8.95
2019-06-01T21:52:54.264Z,9.32
2019-06-01T21:56:25.232Z,9.81
2019-06-01T21:59:55.784Z,7.08
2019-06-01T22:03:27.101Z,7.09
2019-06-01T22:06:57.497Z,6.53
2019-06-01T22:10:27.841Z,6.65
2019-06-01T22:13:58.011Z,6.35
2019-06-01T22:17:27.998Z,9.16
2019-06-01T22:20:58.067Z,9.01
2019-06-01T22:24:28.374Z,8.76
2019-06-01T22:27:58.419Z,9.39
2019-06-01T22:31:28.737Z,8.94
2019-06-01T22:34:58.843Z,8.18
2019-06-01T22:38:29.015Z,8.7
2019-06-01T22:41:59.014Z,8.1
2019-06-01T22:45:29.592Z,7.19
2019-06-01T22:48:59.721Z,9.11
2019-06-01T22:52:29.739Z,6.29
2019-06-01T22:55:59.751Z,8.19
2019-06-01T22:59:29.825Z,8.25
2019-06-01T23:00:14.904Z,10.18
2019-06-01T23:03:45.020Z,7.76
2019-06-01T23:07:15.093Z,8.06
2019-06-01T23:10:45.170Z,8.21
2019-06-01T23:14:15.141Z,9.07
2019-06-01T23:17:45.061Z,7.85
2019-06-01T23:21:15.218Z,7.49
2019-06-01T23:24:45.342Z,6.92
2019-06-01T23:28:15.474Z,7.08
2019-06-01T23:31:45.537Z,7.02
2019-06-01T23:35:15.596Z,7.55
2019-06-01T23:38:45.582Z,7.08
2019-06-01T23:42:15.745Z,6.99
2019-06-01T23:45:45.714Z,6.03
2019-06-01T23:49:15.922Z,6.5
2019-06-01T23:52:46.068Z,6.71
2019-06-01T23:56:16.070Z,5.59
2019-06-01T23:59:46.169Z,6.25
